Estación Meteorológica Peña el Pijo (Robertgarden) [ 02/03/23 02:49:12 CET ]

Fecha Hora Presion(HPa) Temp (°C) Humedad % Rocio (°C) Viento ( m/s) Direccion Lluvia 1Hora(mm) Lluvia 24H(mm) LLuvia Total(mm)
2012-Apr-13 01:01:17 996.300 7.6 71 2.7         155.40
2012-Apr-13 02:01:12 996.500 7.4 70 2.3 0.7 S     155.40
2012-Apr-13 03:03:17 996.300 7.4 71 2.5         155.40
2012-Apr-13 04:01:16 995.900 7.2 71 2.3         155.40
2012-Apr-13 05:01:12 995.500 7.2 70 2.1         155.40
2012-Apr-13 06:01:13 995.400 6.8 74 2.5         155.40
2012-Apr-13 07:01:17 996.300 4.9 80 1.7         155.40
2012-Apr-13 08:01:16 996.300 4.2 84 1.7         155.40
2012-Apr-13 09:01:17 996.600 4.7 86 2.5         155.40
2012-Apr-13 10:01:16 997.400 6.6 79 3.2         155.40
2012-Apr-13 11:01:16 998.800 6.6 72 1.9         155.40
2012-Apr-13 12:01:12 999.500 6.8 71 1.9         155.40
2012-Apr-13 13:01:12 999.400 8.4 61 1.3 2.2 SW     155.40
2012-Apr-13 14:01:16 999.400 8.5 55 -0.1 2.7 ESE     155.40
2012-Apr-13 15:01:13 1000.400 8.6 69 3.2 3.0 WNW     155.40
2012-Apr-13 16:01:14 1000.300 10.1 66 4.0         155.40
2012-Apr-13 17:01:14 1000.800 8.4 69 3.0 1.0 E     155.40
2012-Apr-13 18:01:17 1001.200 7.8 71 2.9         155.40
2012-Apr-13 19:01:16 1001.900 4.6 79 1.2         155.40
2012-Apr-13 20:01:14 1001.900 5.0 83 2.3         155.40
2012-Apr-13 21:01:12 1002.000 4.5 85 2.2         155.40
2012-Apr-13 22:01:16 1002.200 4.5 85 2.2         155.40
2012-Apr-13 23:01:16 1002.300 5.4 73 0.9         155.40

Temperatura Máxima:10°    Temperatura Mínima:
Presión Máxima:1002.300 Hpa    Presión Mínima:995.400 Hpa


Volver